createdAt,value
2022-09-28T00:01:29.394Z,95.23
2022-09-28T00:03:59.766Z,95.73
2022-09-28T00:06:30.351Z,95.65
2022-09-28T00:09:01.884Z,95.40
2022-09-28T00:11:30.063Z,95.47
2022-09-28T00:14:01.453Z,95.59
2022-09-28T00:16:32.693Z,95.88
2022-09-28T00:19:01.704Z,96.46
2022-09-28T00:21:32.058Z,96.40
2022-09-28T00:24:19.227Z,96.68
2022-09-28T00:26:51.158Z,96.96
2022-09-28T00:29:24.453Z,96.72
2022-09-28T00:31:54.016Z,96.51
2022-09-28T00:34:22.348Z,96.39
2022-09-28T00:36:50.577Z,96.23
2022-09-28T00:39:20.212Z,96.21
2022-09-28T00:41:48.558Z,96.51
2022-09-28T00:44:50.296Z,96.05
2022-09-28T00:47:42.656Z,95.80
2022-09-28T00:50:18.227Z,95.78
2022-09-28T00:52:53.202Z,96.55
2022-09-28T00:55:29.307Z,96.89
2022-09-28T00:58:01.984Z,97.03
2022-09-28T01:00:30.367Z,97.36
2022-09-28T01:02:59.700Z,97.37
2022-09-28T01:05:28.882Z,97.01
2022-09-28T01:07:58.572Z,96.98
2022-09-28T01:10:29.267Z,97.07
2022-09-28T01:12:57.466Z,96.94
2022-09-28T01:15:28.068Z,96.78
2022-09-28T01:18:08.436Z,96.97
2022-09-28T01:21:02.403Z,96.78
2022-09-28T01:23:44.758Z,96.69
2022-09-28T01:26:37.663Z,96.75
2022-09-28T01:29:11.899Z,96.99
2022-09-28T01:31:46.626Z,97.24
2022-09-28T01:34:19.647Z,97.31
2022-09-28T01:36:50.663Z,97.18
2022-09-28T01:39:22.616Z,96.90
2022-09-28T01:41:54.636Z,96.35
2022-09-28T01:44:25.771Z,95.98
2022-09-28T01:47:00.859Z,95.94
2022-09-28T01:49:34.301Z,96.09
2022-09-28T01:52:08.956Z,96.06
2022-09-28T01:54:41.633Z,96.00
2022-09-28T01:57:17.188Z,96.75
2022-09-28T01:59:51.984Z,96.71
2022-09-28T02:02:25.781Z,96.47
2022-09-28T02:04:59.992Z,96.40
2022-09-28T02:07:35.588Z,96.97
2022-09-28T02:10:10.206Z,97.08
2022-09-28T02:12:44.983Z,96.84
2022-09-28T02:15:19.123Z,96.65
2022-09-28T02:17:47.599Z,96.82
2022-09-28T02:20:17.901Z,97.38
2022-09-28T02:22:50.378Z,97.55
2022-09-28T02:25:27.776Z,97.42
2022-09-28T02:28:01.734Z,97.56
2022-09-28T02:30:31.653Z,97.84
2022-09-28T02:33:03.109Z,97.55
2022-09-28T02:35:31.793Z,97.32
2022-09-28T02:38:00.127Z,97.31
2022-09-28T02:40:32.777Z,97.36
2022-09-28T02:43:13.136Z,97.33
2022-09-28T02:45:51.496Z,97.28
2022-09-28T02:48:43.905Z,97.49
2022-09-28T02:51:23.364Z,97.46
2022-09-28T02:54:27.384Z,97.20
2022-09-28T02:57:09.511Z,96.97
2022-09-28T02:59:50.510Z,96.87
2022-09-28T03:02:29.315Z,96.81
2022-09-28T03:05:07.655Z,96.78
2022-09-28T03:07:41.110Z,96.74
2022-09-28T03:10:16.096Z,96.84
2022-09-28T03:12:46.338Z,97.06
2022-09-28T03:15:22.984Z,97.00
2022-09-28T03:17:53.884Z,97.13
2022-09-28T03:20:22.326Z,97.15
2022-09-28T03:23:12.419Z,97.16
2022-09-28T03:25:38.994Z,97.17
2022-09-28T03:28:07.226Z,96.86
2022-09-28T03:30:43.461Z,97.25
2022-09-28T03:33:12.213Z,97.91
2022-09-28T03:35:40.712Z,98.17
2022-09-28T03:38:08.929Z,98.35
2022-09-28T03:40:39.480Z,98.52
2022-09-28T03:43:07.858Z,98.45
2022-09-28T03:45:36.306Z,98.09
2022-09-28T03:48:05.968Z,97.73
2022-09-28T03:50:35.512Z,97.44
2022-09-28T03:53:04.945Z,97.30
2022-09-28T03:55:33.513Z,97.24
2022-09-28T03:58:01.732Z,97.24
2022-09-28T04:00:31.026Z,96.95
2022-09-28T04:02:59.430Z,96.97
2022-09-28T04:05:30.051Z,96.75
2022-09-28T04:07:58.920Z,96.48
2022-09-28T04:10:27.627Z,96.63
2022-09-28T04:12:56.890Z,96.45
2022-09-28T04:15:25.675Z,96.20
2022-09-28T04:17:54.037Z,96.12
2022-09-28T04:20:59.285Z,95.80
2022-09-28T04:23:28.854Z,95.75
2022-09-28T04:25:57.109Z,95.81
2022-09-28T04:28:42.899Z,95.62
2022-09-28T04:31:12.850Z,95.68
2022-09-28T04:33:41.067Z,95.43
2022-09-28T04:36:11.321Z,95.48
2022-09-28T04:38:52.802Z,95.17
2022-09-28T04:41:26.536Z,94.94
2022-09-28T04:43:54.889Z,94.81
2022-09-28T04:46:26.166Z,94.69
2022-09-28T04:49:24.461Z,94.81
2022-09-28T04:52:00.148Z,94.78
2022-09-28T04:54:28.435Z,94.64
2022-09-28T04:56:58.694Z,94.51
2022-09-28T04:59:27.179Z,94.75
2022-09-28T05:01:55.467Z,95.08
2022-09-28T05:04:42.627Z,95.18
2022-09-28T05:07:31.351Z,95.41
2022-09-28T05:10:02.451Z,95.33
2022-09-28T05:12:33.531Z,95.20
2022-09-28T05:15:01.964Z,95.11
2022-09-28T05:17:30.273Z,94.96
2022-09-28T05:20:11.836Z,94.84
2022-09-28T05:22:41.627Z,94.88
2022-09-28T05:25:11.068Z,94.74
2022-09-28T05:27:56.912Z,95.53
2022-09-28T05:30:48.278Z,95.86
2022-09-28T05:33:25.539Z,95.58
2022-09-28T05:36:12.057Z,95.92
2022-09-28T05:38:41.826Z,96.31
2022-09-28T05:41:10.583Z,96.28
2022-09-28T05:43:38.929Z,96.33
2022-09-28T05:46:08.290Z,96.13
2022-09-28T05:48:39.841Z,96.22
2022-09-28T05:51:10.157Z,95.98
2022-09-28T05:53:38.373Z,96.24
2022-09-28T05:56:08.530Z,96.40
2022-09-28T05:58:39.320Z,96.41
2022-09-28T06:01:08.085Z,96.52
2022-09-28T06:03:36.435Z,96.53
2022-09-28T06:06:06.018Z,96.37
2022-09-28T06:08:34.520Z,96.20
2022-09-28T06:11:27.003Z,96.22
2022-09-28T06:13:56.435Z,95.98
2022-09-28T06:16:26.086Z,95.84
2022-09-28T06:18:54.354Z,95.78
2022-09-28T06:21:40.965Z,95.84
2022-09-28T06:24:10.682Z,95.97
2022-09-28T06:26:40.634Z,96.13
2022-09-28T06:29:09.669Z,96.07
2022-09-28T06:31:37.975Z,96.01
2022-09-28T06:34:06.197Z,96.16
2022-09-28T06:36:34.459Z,96.16
2022-09-28T06:39:03.418Z,96.07
2022-09-28T06:41:31.883Z,95.96
2022-09-28T06:44:03.837Z,95.83
2022-09-28T06:46:32.528Z,95.74
2022-09-28T06:49:19.962Z,95.65
2022-09-28T06:52:08.169Z,95.52
2022-09-28T06:54:54.594Z,95.43
2022-09-28T06:57:25.237Z,95.25
2022-09-28T06:59:54.753Z,94.85
2022-09-28T07:02:23.189Z,94.55
2022-09-28T07:05:15.007Z,94.11
2022-09-28T07:08:20.352Z,93.81
2022-09-28T07:11:06.961Z,93.83
2022-09-28T07:14:01.046Z,93.66
2022-09-28T07:16:59.208Z,92.96
2022-09-28T07:19:21.050Z,92.75
2022-09-28T07:22:00.315Z,92.40
2022-09-28T07:24:31.651Z,92.30
2022-09-28T07:27:29.490Z,91.86
2022-09-28T07:30:14.360Z,91.18
2022-09-28T07:32:59.113Z,91.05
2022-09-28T07:35:54.279Z,89.89
2022-09-28T07:38:29.377Z,90.04
2022-09-28T07:41:14.905Z,89.79
2022-09-28T07:43:51.265Z,88.28
2022-09-28T07:46:21.344Z,87.86
2022-09-28T07:48:58.431Z,88.16
2022-09-28T07:51:50.314Z,87.92
2022-09-28T07:54:31.515Z,86.79
2022-09-28T07:57:25.094Z,86.67
2022-09-28T08:00:09.134Z,86.22
2022-09-28T08:02:49.103Z,85.55
2022-09-28T08:05:24.151Z,85.00
2022-09-28T08:07:53.024Z,84.82
2022-09-28T08:10:21.557Z,84.52
2022-09-28T08:13:08.886Z,84.45
2022-09-28T08:15:40.221Z,84.03
2022-09-28T08:18:18.180Z,83.89
2022-09-28T08:21:05.672Z,82.55
2022-09-28T08:23:33.971Z,82.65
2022-09-28T08:26:02.197Z,82.91
2022-09-28T08:28:30.365Z,82.95
2022-09-28T08:31:03.823Z,82.03
2022-09-28T08:33:32.126Z,82.25
2022-09-28T08:36:20.863Z,81.56
2022-09-28T08:39:07.961Z,81.89
2022-09-28T08:42:17.118Z,82.52
2022-09-28T08:45:15.842Z,82.15
2022-09-28T08:48:32.017Z,81.25
2022-09-28T08:51:23.391Z,81.14
2022-09-28T08:54:15.628Z,80.72
2022-09-28T08:56:58.203Z,81.49
2022-09-28T08:59:29.635Z,80.20
2022-09-28T09:02:17.249Z,80.58
2022-09-28T09:04:46.022Z,81.49
2022-09-28T09:07:52.190Z,80.99
2022-09-28T09:10:48.585Z,80.25
2022-09-28T09:13:37.735Z,80.43
2022-09-28T09:16:16.319Z,80.84
2022-09-28T09:19:12.552Z,81.39
2022-09-28T09:22:15.288Z,79.10
2022-09-28T09:24:50.435Z,81.17
2022-09-28T09:27:43.477Z,79.53
2022-09-28T09:30:14.239Z,79.02
2022-09-28T09:33:06.144Z,78.21
2022-09-28T09:36:05.571Z,79.24
2022-09-28T09:39:19.911Z,77.65
2022-09-28T09:42:22.278Z,77.53
2022-09-28T09:45:29.976Z,78.92
2022-09-28T09:48:17.209Z,80.07
2022-09-28T09:50:50.724Z,78.14
2022-09-28T09:53:26.428Z,79.40
2022-09-28T09:55:59.592Z,80.65
2022-09-28T09:58:39.858Z,81.10
2022-09-28T10:01:33.731Z,79.54
2022-09-28T10:04:46.568Z,81.36
2022-09-28T10:07:26.282Z,80.63
2022-09-28T10:09:58.541Z,79.88
2022-09-28T10:12:51.197Z,81.27
2022-09-28T10:15:26.207Z,80.49
2022-09-28T10:18:13.925Z,81.43
2022-09-28T10:21:00.698Z,81.20
2022-09-28T10:23:50.226Z,80.78
2022-09-28T10:26:25.428Z,80.70
2022-09-28T10:28:58.097Z,79.66
2022-09-28T10:31:41.238Z,79.62
2022-09-28T10:34:19.055Z,79.03
2022-09-28T10:36:54.695Z,79.29
2022-09-28T10:39:30.033Z,80.16
2022-09-28T10:42:03.537Z,78.74
2022-09-28T10:44:35.674Z,78.32
2022-09-28T10:47:19.295Z,77.82
2022-09-28T10:49:51.632Z,78.76
2022-09-28T10:52:39.787Z,79.58
2022-09-28T10:55:28.798Z,79.78
2022-09-28T10:57:57.473Z,79.08
2022-09-28T11:00:34.039Z,79.69
2022-09-28T11:03:23.895Z,80.20
2022-09-28T11:05:57.510Z,81.06
2022-09-28T11:08:30.578Z,82.38
2022-09-28T11:11:12.662Z,82.98
2022-09-28T11:13:44.023Z,84.12
2022-09-28T11:16:31.761Z,84.43
2022-09-28T11:19:06.843Z,86.11
2022-09-28T11:21:43.963Z,86.06
2022-09-28T11:24:21.661Z,86.16
2022-09-28T11:26:53.742Z,86.01
2022-09-28T11:29:38.314Z,85.38
2022-09-28T11:32:27.522Z,85.55
2022-09-28T11:35:26.426Z,84.96
2022-09-28T11:38:08.564Z,84.20
2022-09-28T11:41:12.555Z,83.58
2022-09-28T11:44:06.065Z,83.27
2022-09-28T11:46:44.902Z,82.55
2022-09-28T11:49:26.909Z,83.46
2022-09-28T11:52:00.348Z,83.99
2022-09-28T11:54:36.047Z,82.54
2022-09-28T11:57:07.442Z,82.79
2022-09-28T11:59:39.880Z,82.90
2022-09-28T12:02:16.926Z,83.68
2022-09-28T12:04:55.797Z,82.10
2022-09-28T12:07:31.203Z,81.56
2022-09-28T12:10:05.333Z,81.03
2022-09-28T12:12:39.029Z,82.04
2022-09-28T12:15:17.971Z,81.37
2022-09-28T12:17:51.393Z,82.28
2022-09-28T12:20:23.955Z,82.29
2022-09-28T12:23:04.893Z,82.78
2022-09-28T12:25:40.617Z,83.12
2022-09-28T12:28:18.770Z,82.86
2022-09-28T12:30:49.992Z,83.45
2022-09-28T12:33:18.786Z,82.30
2022-09-28T12:36:03.954Z,84.04
2022-09-28T12:38:48.251Z,83.90
2022-09-28T12:41:43.073Z,85.16
2022-09-28T12:44:26.179Z,84.59
2022-09-28T12:47:10.000Z,85.13
2022-09-28T12:50:37.537Z,85.22
2022-09-28T12:52:50.679Z,86.16
2022-09-28T12:55:28.332Z,85.80
2022-09-28T12:58:01.125Z,85.33
2022-09-28T13:00:40.021Z,84.85
2022-09-28T13:03:36.036Z,84.21
2022-09-28T13:06:39.972Z,83.89
2022-09-28T13:09:20.017Z,82.33
2022-09-28T13:12:15.454Z,82.74
2022-09-28T13:15:08.697Z,82.34
2022-09-28T13:17:47.863Z,80.20
2022-09-28T13:20:31.281Z,80.41
2022-09-28T13:23:12.661Z,79.96
2022-09-28T13:25:45.290Z,80.86
2022-09-28T13:28:18.033Z,80.72
2022-09-28T13:30:47.209Z,80.05
2022-09-28T13:33:24.250Z,80.07
2022-09-28T13:35:52.557Z,80.53
2022-09-28T13:38:51.885Z,80.52
2022-09-28T13:41:24.786Z,79.69
2022-09-28T13:44:09.202Z,80.04
2022-09-28T13:46:48.909Z,80.80
2022-09-28T13:49:23.235Z,80.51
2022-09-28T13:52:05.552Z,80.01
2022-09-28T13:54:57.132Z,79.11
2022-09-28T13:57:31.440Z,79.82
2022-09-28T14:00:10.430Z,80.30
2022-09-28T14:02:45.607Z,79.39
2022-09-28T14:05:56.668Z,80.21
2022-09-28T14:08:31.880Z,79.17
2022-09-28T14:11:25.984Z,80.34
2022-09-28T14:14:02.469Z,79.46
2022-09-28T14:16:33.409Z,79.97
2022-09-28T14:19:08.097Z,78.15
2022-09-28T14:22:02.451Z,80.45
2022-09-28T14:24:43.831Z,78.29
2022-09-28T14:27:47.970Z,77.68
2022-09-28T14:30:22.498Z,79.04
2022-09-28T14:32:56.063Z,78.44
2022-09-28T14:35:33.834Z,78.25
2022-09-28T14:38:24.653Z,80.74
2022-09-28T14:41:12.503Z,78.57
2022-09-28T14:44:03.574Z,77.92
2022-09-28T14:46:34.978Z,76.77
2022-09-28T14:49:06.858Z,80.57
2022-09-28T14:52:05.807Z,74.67
2022-09-28T14:54:45.298Z,75.92
2022-09-28T14:57:19.183Z,76.69
2022-09-28T14:59:48.130Z,78.66
2022-09-28T15:02:27.484Z,78.65
2022-09-28T15:05:00.945Z,76.81
2022-09-28T15:07:34.439Z,76.02
2022-09-28T15:10:03.402Z,77.79
2022-09-28T15:12:32.501Z,78.88
2022-09-28T15:15:03.250Z,76.28
2022-09-28T15:17:39.431Z,78.00
2022-09-28T15:20:23.737Z,78.74
2022-09-28T15:22:57.059Z,76.72
2022-09-28T15:25:35.239Z,71.68
2022-09-28T15:28:18.038Z,72.99
2022-09-28T15:30:49.578Z,75.23
2022-09-28T15:33:48.769Z,78.18
2022-09-28T15:36:26.201Z,77.82
2022-09-28T15:39:01.343Z,76.72
2022-09-28T15:41:30.146Z,78.30
2022-09-28T15:44:21.045Z,78.41
2022-09-28T15:46:50.595Z,78.03
2022-09-28T15:49:26.581Z,77.65
2022-09-28T15:51:57.077Z,78.30
2022-09-28T15:54:28.506Z,78.70
2022-09-28T15:56:59.774Z,79.60
2022-09-28T15:59:31.950Z,77.64
2022-09-28T16:02:10.934Z,79.51
2022-09-28T16:04:41.629Z,78.75
2022-09-28T16:07:26.115Z,79.35
2022-09-28T16:10:33.857Z,78.16
2022-09-28T16:13:20.129Z,79.79
2022-09-28T16:15:58.065Z,80.32
2022-09-28T16:18:28.219Z,78.39
2022-09-28T16:20:58.935Z,79.80
2022-09-28T16:23:33.568Z,79.59
2022-09-28T16:26:03.800Z,78.11
2022-09-28T16:28:51.892Z,78.20
2022-09-28T16:31:28.271Z,79.41
2022-09-28T16:33:58.083Z,78.27
2022-09-28T16:36:29.882Z,78.69
2022-09-28T16:38:59.509Z,79.81
2022-09-28T16:41:30.368Z,76.10
2022-09-28T16:44:01.202Z,76.23
2022-09-28T16:46:33.791Z,79.66
2022-09-28T16:49:03.159Z,78.46
2022-09-28T16:51:31.316Z,80.26
2022-09-28T16:54:21.988Z,80.11
2022-09-28T16:56:50.177Z,79.79
2022-09-28T16:59:18.665Z,82.10
2022-09-28T17:01:47.316Z,81.09
2022-09-28T17:04:15.529Z,81.83
2022-09-28T17:06:44.203Z,82.42
2022-09-28T17:09:14.395Z,82.52
2022-09-28T17:11:42.842Z,82.20
2022-09-28T17:14:11.719Z,82.67
2022-09-28T17:17:06.767Z,83.32
2022-09-28T17:19:29.822Z,82.10
2022-09-28T17:21:57.963Z,82.40
2022-09-28T17:24:27.510Z,82.98
2022-09-28T17:26:56.095Z,82.91
2022-09-28T17:29:24.278Z,82.24
2022-09-28T17:31:52.999Z,82.49
2022-09-28T17:34:21.987Z,82.29
2022-09-28T17:36:50.281Z,83.14
2022-09-28T17:39:20.336Z,83.19
2022-09-28T17:41:49.951Z,83.20
2022-09-28T17:44:19.128Z,83.87
2022-09-28T17:46:49.543Z,83.35
2022-09-28T17:49:18.920Z,83.90
2022-09-28T17:51:47.087Z,84.20
2022-09-28T17:54:16.914Z,84.75
2022-09-28T17:56:46.103Z,84.29
2022-09-28T17:59:18.940Z,83.58
2022-09-28T18:01:48.364Z,83.61
2022-09-28T18:04:39.759Z,83.65
2022-09-28T18:07:05.481Z,83.47
2022-09-28T18:09:33.907Z,82.63
2022-09-28T18:12:05.200Z,82.62
2022-09-28T18:14:35.820Z,83.09
2022-09-28T18:17:04.488Z,82.69
2022-09-28T18:19:33.230Z,83.21
2022-09-28T18:22:01.856Z,83.18
2022-09-28T18:24:32.420Z,83.71
2022-09-28T18:27:00.831Z,83.43
2022-09-28T18:29:33.022Z,83.24
2022-09-28T18:32:03.831Z,83.39
2022-09-28T18:34:32.104Z,83.48
2022-09-28T18:37:00.393Z,84.11
2022-09-28T18:39:28.612Z,84.36
2022-09-28T18:41:56.838Z,84.47
2022-09-28T18:44:25.228Z,84.03
2022-09-28T18:46:54.491Z,84.30
2022-09-28T18:49:24.676Z,84.45
2022-09-28T18:51:52.932Z,84.76
2022-09-28T18:54:21.207Z,84.93
2022-09-28T18:56:51.238Z,85.52
2022-09-28T18:59:19.580Z,85.00
2022-09-28T19:01:47.819Z,85.05
2022-09-28T19:04:16.295Z,84.84
2022-09-28T19:06:50.493Z,85.26
2022-09-28T19:09:23.463Z,85.32
2022-09-28T19:11:51.947Z,85.03
2022-09-28T19:14:20.571Z,85.42
2022-09-28T19:16:49.584Z,85.19
2022-09-28T19:19:20.598Z,85.84
2022-09-28T19:21:50.317Z,85.95
2022-09-28T19:24:20.091Z,85.64
2022-09-28T19:26:49.071Z,85.80
2022-09-28T19:29:17.436Z,85.48
2022-09-28T19:31:49.626Z,85.89
2022-09-28T19:34:18.528Z,85.98
2022-09-28T19:36:46.810Z,85.90
2022-09-28T19:39:16.688Z,86.12
2022-09-28T19:41:49.574Z,86.06
2022-09-28T19:44:24.720Z,86.22
2022-09-28T19:46:54.772Z,86.83
2022-09-28T19:49:24.640Z,86.83
2022-09-28T19:52:12.895Z,86.61
2022-09-28T19:54:44.560Z,86.86
2022-09-28T19:57:14.558Z,86.70
2022-09-28T19:59:42.780Z,86.81
2022-09-28T20:02:11.741Z,87.08
2022-09-28T20:04:40.091Z,87.07
2022-09-28T20:07:08.314Z,87.34
2022-09-28T20:09:36.487Z,87.37
2022-09-28T20:12:06.266Z,87.15
2022-09-28T20:14:39.508Z,87.03
2022-09-28T20:17:08.814Z,86.81
2022-09-28T20:19:37.068Z,86.67
2022-09-28T20:22:05.469Z,86.71
2022-09-28T20:24:33.885Z,87.20
2022-09-28T20:27:02.875Z,87.24
2022-09-28T20:29:33.349Z,86.93
2022-09-28T20:32:03.956Z,86.96
2022-09-28T20:34:33.858Z,86.99
2022-09-28T20:37:02.583Z,87.04
2022-09-28T20:39:30.791Z,86.96
2022-09-28T20:42:00.289Z,86.60
2022-09-28T20:44:28.450Z,85.97
2022-09-28T20:46:58.264Z,86.63
2022-09-28T20:49:28.211Z,86.77
2022-09-28T20:51:56.414Z,87.12
2022-09-28T20:54:24.731Z,87.55
2022-09-28T20:56:53.036Z,87.98
2022-09-28T20:59:22.961Z,87.57
2022-09-28T21:01:51.289Z,87.54
2022-09-28T21:04:21.377Z,87.71
2022-09-28T21:06:49.602Z,87.61
2022-09-28T21:09:17.752Z,87.77
2022-09-28T21:11:46.392Z,87.79
2022-09-28T21:14:14.520Z,87.71
2022-09-28T21:16:42.691Z,88.06
2022-09-28T21:19:10.828Z,87.83
2022-09-28T21:21:40.353Z,87.93
2022-09-28T21:24:09.217Z,88.14
2022-09-28T21:26:37.772Z,88.28
2022-09-28T21:29:08.510Z,88.57
2022-09-28T21:31:40.212Z,88.47
2022-09-28T21:34:08.804Z,88.18
2022-09-28T21:36:37.015Z,88.47
2022-09-28T21:39:10.196Z,88.47
2022-09-28T21:41:38.889Z,88.39
2022-09-28T21:44:07.272Z,88.64
2022-09-28T21:46:36.452Z,88.92
2022-09-28T21:49:07.560Z,88.60
2022-09-28T21:51:36.265Z,88.39
2022-09-28T21:54:06.662Z,87.97
2022-09-28T21:56:35.306Z,87.58
2022-09-28T21:59:03.565Z,87.54
2022-09-28T22:01:31.882Z,87.97
2022-09-28T22:04:02.865Z,88.13
2022-09-28T22:06:31.012Z,88.12
2022-09-28T22:08:59.531Z,88.32
2022-09-28T22:11:30.144Z,88.24
2022-09-28T22:13:59.996Z,88.38
2022-09-28T22:16:30.697Z,88.33
2022-09-28T22:18:59.628Z,88.31
2022-09-28T22:21:29.420Z,88.17
2022-09-28T22:24:00.945Z,88.15
2022-09-28T22:26:32.083Z,88.07
2022-09-28T22:29:02.293Z,88.43
2022-09-28T22:31:32.722Z,88.58
2022-09-28T22:34:01.433Z,88.55
2022-09-28T22:36:30.232Z,88.30
2022-09-28T22:38:59.397Z,88.28
2022-09-28T22:41:28.360Z,88.70
2022-09-28T22:43:59.060Z,88.72
2022-09-28T22:46:29.263Z,88.31
2022-09-28T22:48:59.671Z,87.89
2022-09-28T22:51:29.352Z,87.63
2022-09-28T22:53:57.849Z,87.35
2022-09-28T22:56:26.435Z,87.23
2022-09-28T22:58:57.130Z,87.19
2022-09-28T23:01:28.238Z,87.35
2022-09-28T23:03:57.416Z,87.71
2022-09-28T23:06:27.787Z,86.89
2022-09-28T23:08:56.087Z,86.45
2022-09-28T23:11:24.415Z,86.55
2022-09-28T23:13:53.344Z,86.67
2022-09-28T23:16:23.588Z,87.11
2022-09-28T23:18:54.515Z,87.53
2022-09-28T23:21:24.369Z,87.32
2022-09-28T23:23:54.546Z,87.44
2022-09-28T23:26:24.519Z,87.48
2022-09-28T23:28:53.430Z,87.96
2022-09-28T23:31:23.889Z,87.67
2022-09-28T23:33:53.977Z,87.86
2022-09-28T23:36:22.206Z,87.97
2022-09-28T23:38:50.397Z,88.08
2022-09-28T23:41:19.102Z,88.18
2022-09-28T23:43:47.474Z,88.15
2022-09-28T23:46:20.519Z,88.31
2022-09-28T23:48:49.413Z,88.35
2022-09-28T23:51:19.332Z,88.60
2022-09-28T23:53:47.779Z,88.59
2022-09-28T23:56:17.383Z,88.83
2022-09-28T23:58:45.709Z,88.77
